Airfield :
LOGIN :

Register | Disclaimer

   EN    FR    IT 

 










Legend :    VFR   Marginal VFR   IFR   Intensive IFR   Very Intensive IFR
Visi :
Ceiling :
>= 8 km
>= 3000ft
5 to 8 km
1000 to 3000 ft
1500m to 5 km
500 to 1000 ft
800 to 1500m
200 to 500 ft
< 800m
< 200 ft
Symbols :   Thunderstorms  Fog  Heavy snow  Heavy precipitations  Wind > 20 kt
SIGMETs :     Misc.  Thunderstorms  Icing  Turbulence  Mountain Waves  Volcanic Ashes






- Airport Elevation : 681 ft
- IATA code : OSL


ENGM - Oslo Gardermoen

CURRENT METAR :
  • 050150Z 09006KT 060V130 9999 SCT037 BKN058 13/07 Q0996

EXPIRED METARs :
  • 050120Z 09005KT 060V120 9999 FEW035 BKN058 14/07 Q0997
  • 050050Z 07005KT 040V110 9999 FEW038 BKN056 14/06 Q0997
  • 050020Z 07005KT 9999 FEW046 BKN058 14/06 Q0997
  • 042350Z 06006KT CAVOK 14/05 Q0997

TAF TAF ENGM
Valid from the 05 at 00:00 until the 06 at 00:00 UTC


0500/0524 07008KT 9999 FEW020 BKN040
TEMPO 0506/0515 14015G25KT
PROB30
TEMPO 0512/0518 RA
TEMPO 0518/0524 4000 SHRA BKN007 SCT020CB



MET'MAP, your aeronautical weather chart ! - Copyright ORBIFLY December 2007 - Disclaimer

ORBIFLY MET'MAP TEAM :

Programming & Development : Alexandra Zaïnal
Concept & original design : Baudouin d'Aumeries
Assistance for programming : Marc-Olivier Méhu
Technical & hardware support : Manuel Goepfert

Contact : metmap@orbifly.com




SOURCES & CREDITS :

   NOAA